Time;durP1;ratioP1;P1;durP2;ratioP2;P2;SDS_P1;SDS_P2;PMS_P1;PMS_P2;Temp;Humidity;BMP_temperature;BMP_pressure;BME280_temperature;BME280_humidity;BME280_pressure;Samples;Min_cycle;Max_cycle;Signal;HPM_P1;HPM_P2
2022/11/13 00:02:39;;;;;;;5.47;3.23;;;;;;;13.08;67.30;101709.88;1735797;82;21466;-71
2022/11/13 00:05:24;;;;;;;4.83;3.10;;;;;;;13.08;67.24;101717.11;1733444;82;21364;-70
2022/11/13 00:08:09;;;;;;;5.53;3.20;;;;;;;13.08;67.03;101717.11;1719410;82;21348;-70
2022/11/13 00:11:17;;;;;;;5.50;3.40;;;;;;;13.07;66.85;101713.62;1705695;83;21161;-70
2022/11/13 00:14:04;;;;;;;4.43;2.90;;;;;;;13.08;66.76;101705.84;1733125;81;22068;-72
2022/11/13 00:16:49;;;;;;;4.60;3.00;;;;;;;13.09;66.68;101697.27;1719373;81;21339;-70
2022/11/13 00:19:34;;;;;;;4.50;2.70;;;;;;;13.01;66.57;101699.84;1741358;82;21320;-70
2022/11/13 00:22:20;;;;;;;5.07;2.83;;;;;;;12.98;66.61;101693.63;1734046;82;21647;-70
2022/11/13 00:25:05;;;;;;;5.47;3.07;;;;;;;13.00;66.58;101699.57;1710470;82;21363;-71
2022/11/13 00:27:50;;;;;;;6.00;2.77;;;;;;;13.00;66.46;101696.08;1730812;81;21273;-72
2022/11/13 00:30:35;;;;;;;6.30;3.03;;;;;;;13.03;66.41;101692.88;1724272;81;21232;-71
2022/11/13 00:33:20;;;;;;;4.33;2.80;;;;;;;13.01;66.27;101695.02;1717179;82;21271;-70
2022/11/13 00:36:10;;;;;;;4.23;2.50;;;;;;;12.98;66.15;101695.50;1723683;82;21380;-70
2022/11/13 00:38:55;;;;;;;4.03;2.57;;;;;;;12.98;66.12;101681.56;1724002;82;21291;-70
2022/11/13 00:41:40;;;;;;;4.73;2.80;;;;;;;13.01;66.09;101689.12;1721383;82;21336;-70
2022/11/13 00:44:25;;;;;;;4.30;2.30;;;;;;;13.00;66.03;101674.63;1727979;82;21434;-70
2022/11/13 00:47:10;;;;;;;4.07;2.37;;;;;;;13.00;65.98;101685.36;1733518;81;21328;-70
2022/11/13 00:49:57;;;;;;;4.27;2.30;;;;;;;12.99;65.98;101675.13;1717421;81;21274;-71
2022/11/13 00:52:42;;;;;;;3.60;2.30;;;;;;;12.97;65.96;101665.73;1733799;82;21758;-70
2022/11/13 00:55:27;;;;;;;4.80;2.67;;;;;;;12.95;66.06;101667.83;1719321;81;21383;-70
2022/11/13 00:58:12;;;;;;;4.23;2.43;;;;;;;12.91;66.18;101673.69;1675815;84;21193;-70
2022/11/13 01:01:10;;;;;;;4.03;2.40;;;;;;;12.88;66.38;101671.48;1741911;82;21776;-70
2022/11/13 01:03:56;;;;;;;4.70;2.63;;;;;;;12.81;66.61;101657.44;1742170;82;21178;-71
2022/11/13 01:06:40;;;;;;;4.00;2.30;;;;;;;12.76;66.80;101656.55;1733526;80;21106;-70
2022/11/13 01:09:26;;;;;;;4.90;2.87;;;;;;;12.72;67.15;101662.11;1750853;80;21295;-71
2022/11/13 01:12:12;;;;;;;5.97;3.00;;;;;;;12.65;67.40;101665.77;1733028;82;21296;-71
2022/11/13 01:14:57;;;;;;;5.03;2.90;;;;;;;12.63;67.59;101661.16;1732547;81;21078;-70
2022/11/13 01:17:42;;;;;;;4.50;2.73;;;;;;;12.66;67.73;101661.21;1749503;81;21274;-70
2022/11/13 01:20:27;;;;;;;5.60;2.73;;;;;;;12.64;67.83;101664.15;1743476;80;21251;-69
2022/11/13 01:23:13;;;;;;;5.23;2.43;;;;;;;12.64;67.90;101664.68;1737710;80;21567;-69
2022/11/13 01:26:10;;;;;;;5.30;2.47;;;;;;;12.59;68.04;101662.72;1751624;81;21697;-70
2022/11/13 01:28:57;;;;;;;4.20;2.70;;;;;;;12.58;68.17;101668.33;1739086;80;21174;-71
2022/11/13 01:31:43;;;;;;;5.00;2.60;;;;;;;12.60;68.21;101656.32;1727960;82;21076;-70
2022/11/13 01:34:28;;;;;;;4.20;2.50;;;;;;;12.63;68.23;101655.00;1750876;82;21901;-69
2022/11/13 01:37:15;;;;;;;5.37;2.37;;;;;;;12.63;68.25;101662.50;1751027;82;21798;-70
2022/11/13 01:40:00;;;;;;;3.33;2.00;;;;;;;12.65;68.24;101662.28;1749144;80;21218;-70
2022/11/13 01:42:46;;;;;;;4.00;2.20;;;;;;;12.65;68.20;101672.47;1751512;81;21288;-70
2022/11/13 01:46:07;;;;;;;4.03;2.20;;;;;;;12.68;68.16;101655.09;1750991;82;21184;-70
2022/11/13 01:48:57;;;;;;;4.57;2.07;;;;;;;12.71;68.08;101661.84;1730166;82;21151;-70
2022/11/13 01:51:57;;;;;;;3.90;2.10;;;;;;;12.62;68.08;101647.48;1751107;82;21679;-70
2022/11/13 01:54:46;;;;;;;3.60;2.00;;;;;;;12.60;68.13;101650.12;1750883;82;21275;-70
2022/11/13 02:10:46;;;;;;;4.53;2.10;;;;;;;12.93;67.29;101631.86;1788088;78;22306;-69
2022/11/13 02:13:32;;;;;;;3.17;1.70;;;;;;;12.85;67.15;101633.09;1768181;80;21030;-71
2022/11/13 02:16:19;;;;;;;3.40;1.77;;;;;;;12.76;67.24;101633.75;1759524;79;21309;-71
2022/11/13 02:19:08;;;;;;;3.87;1.77;;;;;;;12.68;67.37;101640.34;1772947;79;21051;-71
2022/11/13 02:22:12;;;;;;;3.97;1.80;;;;;;;12.69;67.45;101636.60;1776001;80;21156;-71
2022/11/13 02:24:57;;;;;;;3.10;1.95;;;;;;;12.68;67.48;101645.17;1779606;79;21224;-71
2022/11/13 02:27:48;;;;;;;3.43;1.80;;;;;;;12.65;67.55;101640.30;1779507;79;20923;-71
2022/11/13 02:30:35;;;;;;;3.42;1.80;;;;;;;12.57;67.67;101643.91;1774001;79;21649;-71
2022/11/13 02:33:30;;;;;;;4.10;2.13;;;;;;;12.55;67.79;101635.31;1763034;79;21016;-71
2022/11/13 02:36:16;;;;;;;4.20;1.83;;;;;;;12.55;67.87;101629.42;1759692;79;21237;-71
2022/11/13 02:39:06;;;;;;;3.20;1.80;;;;;;;12.54;67.98;101631.83;1775041;80;21308;-70
2022/11/13 02:41:52;;;;;;;5.00;1.90;;;;;;;12.51;68.08;101637.67;1751427;80;21241;-70
2022/11/13 02:44:37;;;;;;;3.60;1.70;;;;;;;12.49;68.13;101639.77;1768591;80;21231;-70
2022/11/13 02:47:22;;;;;;;4.00;1.73;;;;;;;12.49;68.18;101641.11;1745118;82;21268;-69
2022/11/13 02:50:10;;;;;;;3.93;1.90;;;;;;;12.51;68.20;101644.91;1745902;80;21238;-70
2022/11/13 02:52:55;;;;;;;3.23;1.87;;;;;;;12.50;68.24;101643.26;1758292;79;21152;-71
2022/11/13 02:55:41;;;;;;;4.17;2.00;;;;;;;11.90;69.67;101653.45;1773672;80;21072;-71
2022/11/13 02:58:25;;;;;;;4.70;1.70;;;;;;;11.75;70.59;101654.48;1775548;79;21258;-71
2022/11/13 03:01:10;;;;;;;3.70;2.03;;;;;;;11.70;71.04;101647.16;1775531;80;21280;-70
2022/11/13 03:03:55;;;;;;;3.17;1.67;;;;;;;11.69;71.31;101650.89;1752241;80;21109;-71
2022/11/13 03:06:40;;;;;;;3.63;2.07;;;;;;;12.18;70.32;101652.66;1753321;79;21315;-71
2022/11/13 03:09:25;;;;;;;5.90;1.90;;;;;;;12.43;69.40;101654.94;1762018;79;21133;-71
2022/11/13 03:12:10;;;;;;;3.77;1.90;;;;;;;12.50;69.04;101654.78;1761760;80;21300;-71
2022/11/13 03:14:56;;;;;;;4.10;2.03;;;;;;;12.53;68.77;101658.32;1771668;79;21135;-69
2022/11/13 03:17:42;;;;;;;3.63;1.70;;;;;;;12.54;68.53;101654.61;1774859;80;21271;-71
2022/11/13 03:20:27;;;;;;;2.93;1.80;;;;;;;12.55;68.45;101651.39;1770987;80;21208;-70
2022/11/13 03:23:12;;;;;;;4.73;1.70;;;;;;;12.52;68.36;101656.70;1759313;79;21024;-71
2022/11/13 03:26:06;;;;;;;4.13;2.00;;;;;;;12.56;68.29;101651.14;1745615;79;21242;-70
2022/11/13 03:28:51;;;;;;;2.83;1.53;;;;;;;12.60;68.25;101644.76;1767063;79;21328;-71
2022/11/13 03:31:36;;;;;;;3.70;1.50;;;;;;;12.60;68.13;101654.14;1744505;80;21322;-71
2022/11/13 03:34:21;;;;;;;3.43;1.60;;;;;;;12.60;68.04;101645.59;1743948;81;21721;-70
2022/11/13 03:37:05;;;;;;;3.97;1.63;;;;;;;12.61;68.06;101647.75;1753268;79;21312;-71
2022/11/13 03:39:50;;;;;;;3.37;1.80;;;;;;;12.64;68.05;101651.28;1765348;79;21359;-70
2022/11/13 03:42:35;;;;;;;4.27;1.40;;;;;;;12.67;68.01;101640.08;1774568;80;21153;-71
2022/11/13 03:45:20;;;;;;;3.83;1.70;;;;;;;12.69;68.00;101648.66;1767539;79;21403;-71
2022/11/13 03:48:06;;;;;;;2.80;1.57;;;;;;;12.72;67.95;101653.54;1767117;79;21302;-72
2022/11/13 03:50:53;;;;;;;2.20;1.30;;;;;;;12.75;67.91;101656.27;1773748;79;21234;-71
2022/11/13 03:53:37;;;;;;;3.03;1.60;;;;;;;12.77;67.91;101656.84;1746607;81;21212;-72
2022/11/13 03:56:23;;;;;;;4.00;1.60;;;;;;;12.79;67.92;101656.05;1771568;79;21751;-72
2022/11/13 03:59:08;;;;;;;2.87;1.40;;;;;;;12.82;67.91;101658.25;1744966;80;21375;-70
2022/11/13 04:01:53;;;;;;;3.87;1.40;;;;;;;12.83;67.90;101648.64;1747020;79;21265;-70
2022/11/13 04:04:37;;;;;;;3.90;1.70;;;;;;;12.85;67.95;101651.86;1774692;80;21227;-71
2022/11/13 04:07:22;;;;;;;4.00;1.43;;;;;;;12.86;67.92;101657.50;1748974;80;21326;-70
2022/11/13 04:10:08;;;;;;;4.63;1.67;;;;;;;12.86;67.93;101662.86;1743922;81;21286;-70
2022/11/13 04:12:53;;;;;;;3.50;1.60;;;;;;;12.87;67.94;101662.36;1758238;80;21243;-71
2022/11/13 04:15:39;;;;;;;3.60;1.70;;;;;;;12.89;67.95;101666.94;1801904;78;21327;-71
2022/11/13 04:18:25;;;;;;;3.00;1.77;;;;;;;12.89;67.93;101659.70;1793572;78;21269;-71
2022/11/13 04:21:10;;;;;;;4.33;2.13;;;;;;;12.90;67.92;101654.64;1796665;78;21243;-71
2022/11/13 04:23:55;;;;;;;4.67;1.80;;;;;;;12.89;67.92;101658.36;1796370;78;21717;-71
2022/11/13 04:26:40;;;;;;;2.90;1.70;;;;;;;12.88;67.91;101656.73;1786881;80;21714;-72
2022/11/13 04:29:25;;;;;;;3.17;1.63;;;;;;;12.86;67.96;101654.82;1785760;78;21137;-71
2022/11/13 04:32:10;;;;;;;3.70;1.57;;;;;;;12.84;67.99;101660.17;1794288;79;21282;-71
2022/11/13 04:34:55;;;;;;;3.37;1.80;;;;;;;12.83;68.05;101658.02;1789781;78;21275;-71
2022/11/13 04:37:41;;;;;;;3.47;1.80;;;;;;;12.86;68.07;101662.86;1795964;80;21283;-71
2022/11/13 04:40:25;;;;;;;4.70;1.63;;;;;;;12.85;68.05;101663.93;1795491;78;21249;-71
2022/11/13 04:43:11;;;;;;;4.20;2.00;;;;;;;12.83;68.07;101664.73;1789983;79;21242;-71
2022/11/13 04:45:56;;;;;;;2.73;1.53;;;;;;;12.83;68.10;101659.36;1786638;80;21221;-71
2022/11/13 04:48:41;;;;;;;3.43;1.90;;;;;;;12.83;68.14;101658.52;1793979;78;21360;-70
2022/11/13 04:51:25;;;;;;;3.37;1.43;;;;;;;12.82;68.18;101663.61;1791186;78;21351;-70
2022/11/13 04:54:10;;;;;;;5.10;2.07;;;;;;;12.81;68.23;101670.84;1796404;79;21391;-71
2022/11/13 04:56:55;;;;;;;3.30;1.67;;;;;;;12.82;68.25;101668.97;1811458;78;21753;-70
2022/11/13 04:59:40;;;;;;;3.07;1.50;;;;;;;12.79;68.25;101680.19;1805531;79;21175;-70
2022/11/13 05:02:26;;;;;;;4.00;1.60;;;;;;;12.81;68.27;101681.58;1786704;80;21621;-70
2022/11/13 05:05:11;;;;;;;3.83;1.80;;;;;;;12.84;68.27;101678.94;1787022;78;21242;-72
2022/11/13 05:07:56;;;;;;;3.23;1.80;;;;;;;12.85;68.31;101682.70;1786721;80;21306;-70
2022/11/13 05:10:41;;;;;;;2.87;1.73;;;;;;;12.88;68.24;101685.42;1786123;79;21288;-70
2022/11/13 05:13:28;;;;;;;3.27;1.47;;;;;;;12.89;68.24;101685.70;1764279;80;21244;-70
2022/11/13 05:16:14;;;;;;;4.87;1.93;;;;;;;12.91;68.20;101694.33;1795033;78;22244;-70
2022/11/13 05:19:00;;;;;;;3.30;1.50;;;;;;;12.90;68.15;101690.84;1811417;79;21251;-70
2022/11/13 05:21:45;;;;;;;4.40;1.80;;;;;;;12.91;68.16;101691.11;1797235;78;21399;-70
2022/11/13 05:24:31;;;;;;;3.07;1.60;;;;;;;12.88;68.18;101692.94;1788954;78;21689;-71
2022/11/13 05:27:16;;;;;;;4.00;2.17;;;;;;;12.87;68.21;101694.01;1787789;78;21152;-71
2022/11/13 05:30:01;;;;;;;3.47;2.17;;;;;;;12.92;68.24;101694.60;1786386;80;22111;-70
2022/11/13 05:32:47;;;;;;;4.80;2.23;;;;;;;12.97;68.20;101704.61;1790479;78;21277;-70
2022/11/13 05:35:33;;;;;;;4.17;2.00;;;;;;;13.02;68.13;101697.97;1795348;80;21362;-72
2022/11/13 05:38:17;;;;;;;4.37;1.80;;;;;;;13.04;68.07;101686.48;1795615;80;21626;-71
2022/11/13 05:41:16;;;;;;;4.17;2.00;;;;;;;13.07;68.00;101692.16;1796515;78;21108;-71
2022/11/13 05:44:03;;;;;;;3.83;1.83;;;;;;;13.07;67.89;101699.40;1815991;79;21148;-71
2022/11/13 05:46:49;;;;;;;3.10;2.07;;;;;;;13.06;67.90;101699.09;1790281;79;21275;-71
2022/11/13 05:49:33;;;;;;;4.43;2.13;;;;;;;13.07;67.90;101696.72;1792116;78;21368;-71
2022/11/13 05:52:18;;;;;;;3.37;2.13;;;;;;;13.11;67.84;101697.84;1795720;80;21078;-71
2022/11/13 05:55:06;;;;;;;3.20;1.90;;;;;;;13.12;67.80;101695.44;1787728;78;21540;-69
2022/11/13 05:57:51;;;;;;;3.17;1.77;;;;;;;13.14;67.76;101710.23;1809470;79;21254;-71
2022/11/13 06:00:37;;;;;;;2.43;1.50;;;;;;;13.15;67.62;101702.46;1799216;77;21741;-72
2022/11/13 06:03:22;;;;;;;4.80;1.70;;;;;;;13.14;67.48;101703.53;1812222;77;21230;-72
2022/11/13 06:06:11;;;;;;;3.40;1.50;;;;;;;13.17;67.37;101706.25;1796822;78;21166;-71
2022/11/13 06:08:59;;;;;;;3.37;1.67;;;;;;;13.20;67.28;101711.13;1810059;77;21694;-70
2022/11/13 06:11:45;;;;;;;2.83;1.33;;;;;;;13.23;67.19;101709.30;1788352;78;21261;-72
2022/11/13 06:14:31;;;;;;;3.43;1.70;;;;;;;13.25;66.90;101704.52;1797670;78;21039;-70
2022/11/13 06:17:16;;;;;;;3.73;1.83;;;;;;;13.26;66.73;101709.34;1795457;80;21266;-70
2022/11/13 06:20:03;;;;;;;5.67;2.23;;;;;;;13.30;66.59;101716.67;1807415;77;21250;-72
2022/11/13 06:22:48;;;;;;;5.07;2.00;;;;;;;13.32;66.35;101710.52;1768869;79;21249;-72
2022/11/13 06:25:34;;;;;;;3.77;1.80;;;;;;;13.36;66.16;101708.98;1787230;80;21681;-72
2022/11/13 06:28:18;;;;;;;3.27;1.70;;;;;;;13.40;65.89;101707.95;1795572;80;21227;-70
2022/11/13 06:55:47;;;;;;;5.20;1.53;;;;;;;13.58;64.04;101714.89;1798592;77;21273;-70
2022/11/13 06:58:32;;;;;;;2.17;1.30;;;;;;;13.60;63.70;101702.85;1815024;78;21737;-72
2022/11/13 07:01:20;;;;;;;2.50;1.50;;;;;;;13.66;63.53;101710.45;1818374;78;21286;-71
2022/11/13 07:04:06;;;;;;;2.50;1.50;;;;;;;13.72;63.41;101695.19;1798533;78;21038;-71
2022/11/13 07:06:51;;;;;;;1.63;1.13;;;;;;;13.75;62.94;101699.53;1786606;80;21275;-72
2022/11/13 07:09:37;;;;;;;3.37;1.67;;;;;;;13.77;62.99;101694.73;1787469;79;22188;-71
2022/11/13 07:12:22;;;;;;;2.90;1.50;;;;;;;13.78;62.76;101700.91;1801722;77;21262;-72
2022/11/13 07:15:07;;;;;;;3.27;1.60;;;;;;;13.82;62.60;101703.40;1834977;77;21912;-72
2022/11/13 07:17:58;;;;;;;3.23;1.90;;;;;;;13.85;62.51;101702.88;1803488;78;21490;-71
2022/11/13 07:20:43;;;;;;;3.47;1.90;;;;;;;13.88;62.39;101697.53;1791410;78;21318;-71
2022/11/13 07:23:29;;;;;;;3.57;2.07;;;;;;;13.86;62.36;101692.97;1794521;78;21662;-72
2022/11/13 07:26:14;;;;;;;3.23;2.00;;;;;;;13.88;62.24;101698.34;1796483;78;21258;-73
2022/11/13 07:28:59;;;;;;;3.27;2.13;;;;;;;13.91;62.23;101688.98;1797308;77;21544;-71
2022/11/13 07:31:44;;;;;;;3.63;2.47;;;;;;;13.91;62.18;101692.47;1785701;80;21355;-72
2022/11/13 07:34:29;;;;;;;3.57;2.47;;;;;;;13.97;62.03;101704.09;1786258;80;21303;-71
2022/11/13 07:37:14;;;;;;;4.10;2.30;;;;;;;14.01;61.96;101697.15;1786433;80;21910;-71
2022/11/13 07:40:00;;;;;;;5.20;2.90;;;;;;;14.07;61.85;101690.77;1787471;79;21704;-72
2022/11/13 07:42:46;;;;;;;6.77;2.60;;;;;;;14.17;61.38;101688.73;1788284;79;21168;-70
2022/11/13 07:45:31;;;;;;;3.13;2.30;;;;;;;14.20;61.26;101693.59;1793632;79;21809;-71
2022/11/13 07:48:16;;;;;;;3.77;2.40;;;;;;;14.30;60.79;101682.95;1786693;80;21263;-71
2022/11/13 07:51:01;;;;;;;4.50;2.00;;;;;;;14.37;60.65;101688.11;1786696;80;21246;-71
2022/11/13 07:53:47;;;;;;;3.10;2.10;;;;;;;14.40;60.39;101707.23;1786691;79;21225;-70
2022/11/13 07:56:32;;;;;;;2.70;1.90;;;;;;;14.42;60.05;101698.93;1803481;79;21204;-73
2022/11/13 07:59:17;;;;;;;6.30;2.40;;;;;;;14.40;60.02;101692.98;1818663;79;21403;-72
2022/11/13 08:02:02;;;;;;;3.90;2.30;;;;;;;14.42;60.04;101694.90;1836601;77;21751;-72
2022/11/13 08:04:47;;;;;;;3.07;1.90;;;;;;;14.45;60.04;101694.39;1786753;80;22156;-72
2022/11/13 08:07:32;;;;;;;4.13;2.20;;;;;;;14.39;60.21;101697.55;1786633;80;21336;-73
2022/11/13 08:10:20;;;;;;;3.17;2.27;;;;;;;14.39;60.21;101697.55;1786420;80;21335;-70
2022/11/13 08:13:07;;;;;;;2.70;1.90;;;;;;;14.41;60.26;101716.94;1793673;79;21235;-71
2022/11/13 08:15:52;;;;;;;2.90;2.07;;;;;;;14.46;60.24;101709.44;1786694;80;21768;-70
2022/11/13 08:18:37;;;;;;;3.60;2.10;;;;;;;14.51;60.08;101698.24;1786443;80;21294;-72
2022/11/13 08:21:22;;;;;;;2.73;2.00;;;;;;;14.54;59.87;101698.24;1786779;79;21293;-71
2022/11/13 08:24:09;;;;;;;4.43;2.30;;;;;;;14.54;59.87;101707.66;1786639;79;21215;-71
2022/11/13 08:26:54;;;;;;;4.23;2.40;;;;;;;14.33;60.39;101705.28;1786617;80;21269;-71
2022/11/13 08:29:39;;;;;;;3.77;2.60;;;;;;;14.16;61.19;101708.61;1788217;79;21374;-72
2022/11/13 08:32:24;;;;;;;3.93;2.50;;;;;;;14.16;61.19;101708.61;1786717;80;21866;-72
2022/11/13 08:35:09;;;;;;;4.13;2.30;;;;;;;14.15;61.19;101709.14;1786432;80;21388;-71
2022/11/13 08:37:57;;;;;;;4.17;2.67;;;;;;;14.49;60.43;101703.56;1786736;79;21180;-72
2022/11/13 08:40:42;;;;;;;4.07;2.60;;;;;;;14.28;60.68;101707.91;1786657;80;21729;-71
2022/11/13 08:43:27;;;;;;;6.67;3.70;;;;;;;14.29;60.88;101692.89;1797863;79;21163;-71
2022/11/13 08:46:12;;;;;;;5.60;3.40;;;;;;;14.52;60.38;101700.39;1795347;79;21980;-70
2022/11/13 08:48:57;;;;;;;12.07;4.00;;;;;;;14.68;59.94;101690.59;1787320;79;21241;-71
2022/11/13 08:51:44;;;;;;;5.20;2.90;;;;;;;14.67;59.75;101685.72;1786631;80;21385;-70
2022/11/13 08:54:29;;;;;;;6.63;3.50;;;;;;;14.76;59.45;101696.28;1786480;80;21349;-71
2022/11/13 08:57:14;;;;;;;4.10;2.90;;;;;;;14.85;59.15;101694.48;1787232;79;21449;-71
2022/11/13 09:00:00;;;;;;;4.73;3.20;;;;;;;14.88;58.79;101692.62;1786654;80;21351;-71
2022/11/13 09:02:46;;;;;;;3.60;2.77;;;;;;;14.86;58.56;101700.12;1815363;77;21452;-71
2022/11/13 09:05:31;;;;;;;4.80;3.47;;;;;;;14.85;58.56;101687.76;1788956;77;21387;-70
2022/11/13 09:08:17;;;;;;;5.53;3.47;;;;;;;14.91;58.74;101673.28;1786515;80;21363;-71
2022/11/13 09:11:04;;;;;;;4.83;3.20;;;;;;;14.98;58.63;101675.20;1786525;80;21406;-71
2022/11/13 09:13:49;;;;;;;5.77;3.43;;;;;;;14.98;58.82;101672.52;1786431;80;21425;-71
2022/11/13 09:16:35;;;;;;;4.63;3.30;;;;;;;14.98;58.82;101672.52;1786488;80;21415;-71
2022/11/13 09:19:19;;;;;;;4.67;3.70;;;;;;;15.15;58.25;101673.70;1786542;80;21363;-71
2022/11/13 09:22:05;;;;;;;4.20;3.50;;;;;;;15.23;57.99;101682.61;1811173;79;21962;-71
2022/11/13 09:24:50;;;;;;;5.27;4.00;;;;;;;15.17;57.70;101683.67;1817853;77;21962;-69
2022/11/13 09:27:34;;;;;;;4.97;3.80;;;;;;;15.18;57.34;101673.98;1818726;79;21404;-72
2022/11/13 09:30:20;;;;;;;5.23;3.80;;;;;;;15.18;57.34;101673.98;1818680;79;21471;-71
2022/11/13 09:33:05;;;;;;;5.10;3.60;;;;;;;15.34;57.47;101677.58;1805486;79;21573;-72
2022/11/13 09:35:51;;;;;;;5.70;4.40;;;;;;;15.40;57.41;101670.31;1786567;80;21552;-72
2022/11/13 09:38:36;;;;;;;6.97;4.27;;;;;;;15.42;56.83;101666.83;1787586;79;21470;-72
2022/11/13 09:41:25;;;;;;;5.53;4.17;;;;;;;15.39;56.25;101670.05;1786645;79;21373;-72
2022/11/13 09:44:44;;;;;;;17.07;5.53;;;;;;;15.39;56.25;101670.05;1807345;79;21481;-71
2022/11/13 09:47:32;;;;;;;5.10;3.70;;;;;;;15.44;55.75;101652.59;1818708;79;21734;-72
2022/11/13 09:50:22;;;;;;;5.30;3.97;;;;;;;15.44;55.75;101652.59;1816691;79;21550;-72
2022/11/13 09:53:10;;;;;;;4.63;3.47;;;;;;;15.47;55.88;101656.91;1786586;80;21459;-71
2022/11/13 09:56:08;;;;;;;5.13;3.73;;;;;;;15.50;55.65;101659.62;1787496;79;21453;-71
2022/11/13 09:59:15;;;;;;;5.40;3.70;;;;;;;15.50;55.33;101646.16;1786379;80;21788;-71
2022/11/13 10:02:23;;;;;;;8.37;3.67;;;;;;;15.60;55.50;101642.69;1786485;80;21705;-71
2022/11/13 10:05:29;;;;;;;4.37;3.30;;;;;;;15.60;55.50;101642.69;1805855;79;21483;-71
2022/11/13 10:08:41;;;;;;;4.80;2.97;;;;;;;15.73;55.47;101654.34;1810721;79;21493;-72
2022/11/13 10:11:51;;;;;;;11.20;3.67;;;;;;;15.82;55.25;101655.43;1788985;79;21991;-72
2022/11/13 10:25:27;;;;;;;3.73;2.70;;;;;;;16.42;54.10;101639.64;1779514;79;23273;-71
2022/11/13 10:28:23;;;;;;;4.63;2.70;;;;;;;16.40;53.86;101622.91;1784192;80;21022;-71
2022/11/13 10:31:10;;;;;;;4.00;2.63;;;;;;;16.32;53.85;101633.70;1774175;80;21143;-70
2022/11/13 10:33:56;;;;;;;4.27;2.50;;;;;;;16.31;53.88;101633.96;1733449;80;21704;-71
2022/11/13 10:37:14;;;;;;;4.00;2.60;;;;;;;16.36;53.82;101622.65;1754222;81;21594;-70
2022/11/13 10:39:59;;;;;;;6.23;2.80;;;;;;;16.39;53.70;101626.16;1753988;81;21650;-71
2022/11/13 10:42:44;;;;;;;5.33;2.63;;;;;;;16.38;53.50;101629.11;1754281;80;21706;-71
2022/11/13 10:45:28;;;;;;;16.83;4.07;;;;;;;16.34;53.50;101631.53;1759491;81;21769;-70
2022/11/13 10:48:26;;;;;;;16.63;4.53;;;;;;;16.35;53.46;101632.34;1767110;80;21626;-70
2022/11/13 10:51:28;;;;;;;3.70;2.17;;;;;;;16.36;53.60;101640.72;1769045;80;21612;-72
2022/11/13 10:54:22;;;;;;;4.50;2.60;;;;;;;16.42;53.58;101632.91;1749184;81;21655;-72
2022/11/13 10:57:29;;;;;;;3.57;2.23;;;;;;;16.47;53.41;101630.19;1749425;82;21706;-73
2022/11/13 11:00:23;;;;;;;3.53;2.30;;;;;;;16.46;53.11;101621.84;1749785;80;21101;-72
2022/11/13 11:03:17;;;;;;;3.70;2.10;;;;;;;16.42;53.04;101622.12;1749119;82;21750;-71
2022/11/13 11:06:04;;;;;;;4.10;1.90;;;;;;;16.39;53.31;101624.00;1750695;80;21702;-72
2022/11/13 11:08:49;;;;;;;3.20;2.00;;;;;;;16.34;53.10;101631.53;1766100;80;22193;-72
2022/11/13 11:14:59;;;;;;;2.50;1.40;;;;;;;16.27;53.28;101628.30;1748914;82;21643;-73
2022/11/13 11:17:52;;;;;;;3.43;1.80;;;;;;;16.27;53.25;101608.08;1753641;80;21707;-72
2022/11/13 11:20:56;;;;;;;3.10;1.60;;;;;;;16.23;53.25;101595.42;1780250;80;21694;-72
2022/11/13 11:23:53;;;;;;;3.27;1.70;;;;;;;16.17;53.21;101594.06;1775800;80;21801;-72
2022/11/13 11:26:55;;;;;;;4.63;1.50;;;;;;;16.13;53.19;101608.35;1754736;80;22291;-72
2022/11/13 11:29:54;;;;;;;2.23;1.40;;;;;;;16.10;53.44;101604.84;1723014;82;21723;-72
2022/11/13 11:32:57;;;;;;;2.70;1.50;;;;;;;16.07;53.37;101600.80;1726683;83;21685;-72
2022/11/13 11:35:45;;;;;;;;;;;;;;;16.05;53.11;101602.13;1729175;81;21834;-71
2022/11/13 11:38:47;;;;;;;4.33;1.80;;;;;;;16.01;53.15;101598.36;1751859;80;20196;-70
2022/11/13 11:41:45;;;;;;;4.47;1.90;;;;;;;15.99;53.51;101603.20;1744861;81;22063;-71
2022/11/13 11:44:39;;;;;;;3.90;1.90;;;;;;;15.92;53.63;101588.09;1743965;80;21728;-72
2022/11/13 11:47:24;;;;;;;3.13;1.70;;;;;;;15.92;53.63;101588.09;1744946;82;22126;-72
2022/11/13 11:50:15;;;;;;;3.33;1.60;;;;;;;15.89;53.80;101585.96;1744794;82;21494;-71
2022/11/13 11:53:38;;;;;;;2.80;1.60;;;;;;;15.83;53.97;101582.18;1744964;82;21436;-71
2022/11/13 11:56:30;;;;;;;;;;;;;;;15.82;54.08;101588.08;1767653;80;20948;-73
2022/11/13 11:59:38;;;;;;;2.73;1.70;;;;;;;15.77;54.04;101592.13;1775469;80;21146;-71
2022/11/13 12:02:55;;;;;;;3.27;1.83;;;;;;;15.69;54.01;101578.66;1775496;80;21549;-72
2022/11/13 12:06:06;;;;;;;4.13;1.87;;;;;;;15.73;54.10;101578.09;1745327;80;21456;-72
2022/11/13 12:09:13;;;;;;;3.35;1.75;;;;;;;15.73;54.10;101578.09;1775662;80;22595;-70
2022/11/13 12:12:22;;;;;;;2.97;1.60;;;;;;;15.71;54.16;101592.64;1773701;80;21058;-70
2022/11/13 12:15:15;;;;;;;3.30;1.70;;;;;;;15.70;54.02;101592.92;1775254;80;21563;-71
2022/11/13 12:18:16;;;;;;;4.47;1.80;;;;;;;15.65;54.27;101580.75;1775567;80;22008;-71
2022/11/13 12:21:26;;;;;;;6.10;1.93;;;;;;;15.65;54.27;101580.75;1768740;80;21485;-70
2022/11/13 12:24:23;;;;;;;3.40;1.83;;;;;;;15.66;54.08;101585.92;1744643;81;21728;-72
2022/11/13 12:27:23;;;;;;;2.33;1.40;;;;;;;15.62;54.14;101578.05;1745043;82;21951;-71
2022/11/13 12:30:20;;;;;;;3.73;1.60;;;;;;;15.63;53.83;101584.23;1752608;80;21826;-71
2022/11/13 12:33:17;;;;;;;3.90;1.90;;;;;;;15.63;53.83;101584.23;1744704;82;21446;-70
2022/11/13 12:36:03;;;;;;;4.30;1.80;;;;;;;15.53;54.25;101586.39;1745027;82;21441;-71
2022/11/13 12:39:03;;;;;;;3.63;1.70;;;;;;;15.53;54.25;101586.39;1744835;80;21453;-71
2022/11/13 12:41:55;;;;;;;2.90;1.43;;;;;;;15.57;54.34;101586.67;1744766;82;21455;-71
2022/11/13 12:44:52;;;;;;;5.47;1.80;;;;;;;15.57;54.34;101586.67;1744745;82;22129;-72
2022/11/13 12:47:37;;;;;;;3.03;1.50;;;;;;;15.47;55.02;101579.37;1753288;80;21521;-72
2022/11/13 12:50:27;;;;;;;3.30;1.60;;;;;;;15.47;55.02;101579.37;1744659;82;21508;-72
2022/11/13 12:53:18;;;;;;;3.93;1.70;;;;;;;15.44;54.88;101585.28;1744813;82;21526;-71
2022/11/13 12:56:04;;;;;;;2.55;1.40;;;;;;;15.22;55.12;101583.56;1719824;82;21506;-72
2022/11/13 12:59:19;;;;;;;7.20;1.97;;;;;;;15.31;55.05;101591.16;1744789;80;21151;-73
2022/11/13 13:02:14;;;;;;;3.80;1.70;;;;;;;15.18;55.36;101588.41;1744738;82;22006;-71
2022/11/13 13:05:20;;;;;;;4.20;1.93;;;;;;;15.20;55.39;101588.93;1762206;80;21454;-71
2022/11/13 13:08:36;;;;;;;7.87;2.20;;;;;;;15.17;55.41;101582.22;1745236;80;21469;-71
2022/11/13 13:11:59;;;;;;;3.60;2.07;;;;;;;15.20;55.53;101587.08;1775712;80;21453;-69
2022/11/13 13:15:35;;;;;;;3.30;1.50;;;;;;;15.19;55.29;101585.98;1773448;80;21883;-73
2022/11/13 13:18:31;;;;;;;3.90;1.90;;;;;;;15.17;55.31;101580.06;1744825;82;21735;-70
2022/11/13 13:21:18;;;;;;;3.07;1.67;;;;;;;15.33;55.17;101573.64;1745811;80;21427;-70
2022/11/13 13:24:11;;;;;;;3.63;1.40;;;;;;;15.31;54.58;101585.23;1744813;80;21414;-70
2022/11/13 13:26:56;;;;;;;3.85;2.15;;;;;;;15.31;54.58;101585.23;1745140;82;21394;-71
2022/11/13 13:29:41;;;;;;;3.07;1.80;;;;;;;15.28;54.69;101580.91;1744738;81;21229;-71
2022/11/13 13:32:35;;;;;;;2.63;1.50;;;;;;;14.90;55.54;101570.77;1744826;81;21398;-71
2022/11/13 13:35:25;;;;;;;3.30;1.80;;;;;;;14.97;55.55;101569.48;1744680;81;21830;-72
2022/11/13 13:38:19;;;;;;;4.10;1.90;;;;;;;15.12;55.07;101571.95;1745807;80;21458;-71
2022/11/13 13:41:29;;;;;;;2.77;1.53;;;;;;;14.77;55.76;101564.80;1745030;80;21400;-71
2022/11/13 13:44:47;;;;;;;4.37;2.00;;;;;;;14.77;56.08;101567.48;1744589;82;21372;-71
2022/11/13 13:47:39;;;;;;;3.27;1.60;;;;;;;14.77;56.08;101567.48;1761173;80;21265;-71
2022/11/13 13:50:32;;;;;;;5.72;2.75;;;;;;;14.53;56.47;101564.90;1775366;80;21424;-71
2022/11/13 13:53:25;;;;;;;7.23;3.80;;;;;;;14.38;56.86;101567.44;1744767;82;20979;-72
2022/11/13 13:56:11;;;;;;;7.90;3.77;;;;;;;14.26;57.15;101563.06;1774556;80;21251;-70
2022/11/13 13:58:57;;;;;;;8.13;4.13;;;;;;;14.19;57.41;101563.01;1775378;80;22174;-71
2022/11/13 14:01:58;;;;;;;7.90;4.37;;;;;;;14.13;57.56;101560.80;1774541;80;21208;-71
2022/11/13 14:04:46;;;;;;;9.70;4.70;;;;;;;14.07;57.71;101560.48;1752281;80;21252;-71